AIB280 KBOS-KORD
Flight info
| Callsign | AIB280 |
|---|---|
| Flight time | N/A |
| Altitude | 38000 |
| Route | HYLND7 HYLND CAM Q822 FNT WYNDE3 |
| Aircraft | A359/H-SDE2E3GHIJ3J4J5LM1ORWXY/LB1D1 |
Departure
| Time | 2026-05-05 04:22 |
|---|---|
| Airport | Boston Logan International Airport (KBOS) |
Arrival
| Time | N/A |
|---|---|
| Airport | Chicago O'Hare International Airport (KORD) |
| Time | Latitude | Longitude | Altitude | Speed | Heading |
|---|---|---|---|---|---|
| 2026-05-05 04:03 | 42.37149 | -71.01999 | 34 ft | 0 kts | 210° |
| 2026-05-05 04:06 | 42.37150 | -71.01998 | 34 ft | 2 kts | 210° |
| 2026-05-05 04:06 | 42.37164 | -71.01987 | 32 ft | 2 kts | 210° |
| 2026-05-05 04:07 | 42.37178 | -71.01976 | 32 ft | 3 kts | 197° |
| 2026-05-05 04:07 | 42.37196 | -71.01973 | 32 ft | 3 kts | 159° |
| 2026-05-05 04:07 | 42.37207 | -71.01980 | 32 ft | 0 kts | 133° |
| 2026-05-05 04:17 | 42.37207 | -71.01979 | 35 ft | 0 kts | 133° |
| 2026-05-05 04:18 | 42.37184 | -71.01947 | 35 ft | 9 kts | 132° |
| 2026-05-05 04:18 | 42.37125 | -71.01843 | 35 ft | 18 kts | 122° |
| 2026-05-05 04:18 | 42.37058 | -71.01700 | 36 ft | 18 kts | 123° |
| 2026-05-05 04:18 | 42.36972 | -71.01573 | 33 ft | 20 kts | 134° |
| 2026-05-05 04:19 | 42.36869 | -71.01430 | 33 ft | 22 kts | 131° |
| 2026-05-05 04:19 | 42.36863 | -71.01262 | 30 ft | 17 kts | 54° |
| 2026-05-05 04:19 | 42.36930 | -71.01141 | 31 ft | 8 kts | 79° |
| 2026-05-05 04:19 | 42.36915 | -71.01105 | 31 ft | 5 kts | 127° |
| 2026-05-05 04:20 | 42.36892 | -71.01071 | 32 ft | 5 kts | 134° |
| 2026-05-05 04:20 | 42.36869 | -71.01039 | 33 ft | 5 kts | 134° |
| 2026-05-05 04:20 | 42.36846 | -71.01008 | 34 ft | 5 kts | 135° |
| 2026-05-05 04:20 | 42.36821 | -71.00974 | 34 ft | 6 kts | 135° |
| 2026-05-05 04:21 | 42.36789 | -71.00931 | 34 ft | 7 kts | 135° |
| 2026-05-05 04:21 | 42.36748 | -71.00876 | 34 ft | 9 kts | 135° |
| 2026-05-05 04:21 | 42.36704 | -71.00818 | 36 ft | 8 kts | 135° |
| 2026-05-05 04:21 | 42.36662 | -71.00763 | 37 ft | 8 kts | 135° |
| 2026-05-05 04:22 | 42.36589 | -71.00665 | 36 ft | 37 kts | 135° |
| 2026-05-05 04:22 | 42.36241 | -71.00200 | 32 ft | 102 kts | 134° |
| 2026-05-05 04:22 | 42.35612 | -70.99368 | 34 ft | 153 kts | 139° |
| 2026-05-05 04:22 | 42.34883 | -70.98399 | 678 ft | 146 kts | 141° |
| 2026-05-05 04:23 | 42.34211 | -70.97281 | 1092 ft | 163 kts | 128° |
| 2026-05-05 04:23 | 42.33812 | -70.95719 | 1410 ft | 189 kts | 111° |
| 2026-05-05 04:23 | 42.33488 | -70.93860 | 1619 ft | 218 kts | 111° |
| 2026-05-05 04:23 | 42.33124 | -70.91715 | 1805 ft | 250 kts | 110° |
| 2026-05-05 04:24 | 42.32651 | -70.89329 | 2158 ft | 271 kts | 112° |
| 2026-05-05 04:24 | 42.32266 | -70.86763 | 2740 ft | 288 kts | 94° |
| 2026-05-05 04:24 | 42.32568 | -70.84076 | 3549 ft | 290 kts | 77° |
| 2026-05-05 04:25 | 42.33570 | -70.78803 | 5147 ft | 291 kts | 74° |
| 2026-05-05 04:25 | 42.34421 | -70.76335 | 5939 ft | 289 kts | 50° |
| 2026-05-05 04:25 | 42.35949 | -70.74682 | 6774 ft | 280 kts | 20° |
| 2026-05-05 04:25 | 42.37777 | -70.73780 | 7519 ft | 281 kts | 13° |
| 2026-05-05 04:26 | 42.39640 | -70.73029 | 8288 ft | 285 kts | 13° |
| 2026-05-05 04:26 | 42.41549 | -70.72261 | 9093 ft | 288 kts | 13° |
| 2026-05-05 04:26 | 42.43491 | -70.71568 | 9895 ft | 289 kts | 6° |
| 2026-05-05 04:26 | 42.45497 | -70.71613 | 10391 ft | 295 kts | 342° |
| 2026-05-05 04:27 | 42.47455 | -70.72629 | 10720 ft | 310 kts | 331° |
| 2026-05-05 04:27 | 42.49457 | -70.73962 | 11056 ft | 328 kts | 330° |
| 2026-05-05 04:27 | 42.51550 | -70.75398 | 11368 ft | 345 kts | 328° |
| 2026-05-05 04:27 | 42.53506 | -70.77328 | 11852 ft | 351 kts | 313° |
| 2026-05-05 04:28 | 42.55027 | -70.79919 | 12560 ft | 352 kts | 302° |
| 2026-05-05 04:28 | 42.56388 | -70.82689 | 13290 ft | 355 kts | 301° |
| 2026-05-05 04:28 | 42.57730 | -70.85470 | 13994 ft | 357 kts | 301° |
| 2026-05-05 04:28 | 42.59086 | -70.88296 | 14554 ft | 354 kts | 300° |
| 2026-05-05 04:29 | 42.60399 | -70.91064 | 15057 ft | 342 kts | 303° |
| 2026-05-05 04:29 | 42.61704 | -70.93700 | 15533 ft | 330 kts | 303° |
| 2026-05-05 04:29 | 42.62970 | -70.96244 | 16061 ft | 319 kts | 303° |
| 2026-05-05 04:29 | 42.64184 | -70.98700 | 16582 ft | 308 kts | 303° |
| 2026-05-05 04:30 | 42.65348 | -71.01077 | 17066 ft | 296 kts | 303° |
| 2026-05-05 04:30 | 42.66465 | -71.03366 | 17585 ft | 285 kts | 302° |
| 2026-05-05 04:30 | 42.67532 | -71.05573 | 18036 ft | 273 kts | 302° |
| 2026-05-05 04:30 | 42.68551 | -71.07687 | 18452 ft | 262 kts | 302° |
| 2026-05-05 04:31 | 42.69516 | -71.09696 | 18794 ft | 253 kts | 302° |
| 2026-05-05 04:31 | 42.70207 | -71.11840 | 18899 ft | 247 kts | 278° |
| 2026-05-05 04:31 | 42.70040 | -71.14148 | 18932 ft | 250 kts | 252° |
| 2026-05-05 04:31 | 42.69015 | -71.16092 | 18938 ft | 262 kts | 226° |
| 2026-05-05 04:32 | 42.67394 | -71.17334 | 18948 ft | 273 kts | 212° |
| 2026-05-05 04:32 | 42.65577 | -71.18289 | 18816 ft | 285 kts | 210° |
| 2026-05-05 04:32 | 42.63674 | -71.19243 | 18621 ft | 296 kts | 209° |
| 2026-05-05 04:32 | 42.61712 | -71.20239 | 18503 ft | 304 kts | 209° |
| 2026-05-05 04:33 | 42.59607 | -71.20840 | 18455 ft | 320 kts | 187° |
| 2026-05-05 04:33 | 42.57397 | -71.20274 | 18425 ft | 338 kts | 165° |
| 2026-05-05 04:33 | 42.55371 | -71.18544 | 18411 ft | 352 kts | 144° |
| 2026-05-05 04:33 | 42.53617 | -71.16198 | 18402 ft | 352 kts | 140° |
| 2026-05-05 04:34 | 42.51953 | -71.13807 | 18323 ft | 345 kts | 140° |
| 2026-05-05 04:34 | 42.50315 | -71.11458 | 18224 ft | 339 kts | 140° |
| 2026-05-05 04:34 | 42.48709 | -71.09148 | 18135 ft | 334 kts | 140° |
| 2026-05-05 04:34 | 42.47125 | -71.06865 | 18037 ft | 329 kts | 140° |
| 2026-05-05 04:35 | 42.45593 | -71.04647 | 17960 ft | 324 kts | 140° |
| 2026-05-05 04:35 | 42.44062 | -71.02422 | 17865 ft | 320 kts | 140° |
| 2026-05-05 04:35 | 42.42559 | -71.00229 | 17769 ft | 316 kts | 140° |
| 2026-05-05 04:35 | 42.41071 | -70.98057 | 17705 ft | 312 kts | 140° |
| 2026-05-05 04:36 | 42.39605 | -70.95912 | 17635 ft | 309 kts | 140° |
| 2026-05-05 04:36 | 42.38156 | -70.93788 | 17594 ft | 307 kts | 140° |
| 2026-05-05 04:36 | 42.36689 | -70.91644 | 17623 ft | 312 kts | 140° |
| 2026-05-05 04:36 | 42.35204 | -70.89490 | 17687 ft | 314 kts | 141° |
| 2026-05-05 04:37 | 42.33618 | -70.87452 | 17758 ft | 315 kts | 146° |
| 2026-05-05 04:37 | 42.31971 | -70.85477 | 17822 ft | 318 kts | 146° |
| 2026-05-05 04:37 | 42.30116 | -70.84139 | 17725 ft | 287 kts | 196° |
| 2026-05-05 04:37 | 42.28864 | -70.85598 | 17780 ft | 217 kts | 266° |
| 2026-05-05 04:38 | 42.29360 | -70.86946 | 18692 ft | 178 kts | 353° |
| 2026-05-05 04:38 | 42.30562 | -70.86080 | 18029 ft | 222 kts | 40° |
| 2026-05-05 04:38 | 42.31793 | -70.85772 | 17778 ft | 167 kts | 313° |
| 2026-05-05 04:38 | 42.32087 | -70.87145 | 16185 ft | 148 kts | 244° |
| 2026-05-05 04:39 | 42.31943 | -70.88098 | 11594 ft | 61 kts | 81° |
| 2026-05-05 04:39 | 42.32081 | -70.88290 | 4772 ft | 66 kts | 44° |
| 2026-05-05 04:39 | 42.32269 | -70.88174 | 20 ft | 48 kts | 243° |